sensor_id;sensor_type;location;lat;lon;timestamp;pressure;altitude;pressure_sealevel;temperature;humidity
3968;BME280;9221;42.646;23.380;2023-04-26T00:01:12;93604.31;;;10.38;98.21
3968;BME280;9221;42.646;23.380;2023-04-26T00:03:39;93606.56;;;10.49;98.38
3968;BME280;9221;42.646;23.380;2023-04-26T00:06:05;93593.47;;;10.25;98.91
3968;BME280;9221;42.646;23.380;2023-04-26T00:08:33;93527.34;;;9.80;99.71
3968;BME280;9221;42.646;23.380;2023-04-26T00:10:58;93588.34;;;10.31;100.00
3968;BME280;9221;42.646;23.380;2023-04-26T00:13:24;93617.50;;;10.38;99.45
3968;BME280;9221;42.646;23.380;2023-04-26T00:15:50;93630.97;;;10.43;99.30
3968;BME280;9221;42.646;23.380;2023-04-26T00:18:15;93583.31;;;10.22;99.66
3968;BME280;9221;42.646;23.380;2023-04-26T00:20:42;93618.00;;;9.94;100.00
3968;BME280;9221;42.646;23.380;2023-04-26T00:23:07;93505.25;;;9.58;100.00
3968;BME280;9221;42.646;23.380;2023-04-26T00:25:35;93578.06;;;9.82;100.00
3968;BME280;9221;42.646;23.380;2023-04-26T00:28:01;93545.28;;;9.45;100.00
3968;BME280;9221;42.646;23.380;2023-04-26T00:30:26;93625.66;;;9.64;100.00
3968;BME280;9221;42.646;23.380;2023-04-26T00:32:52;93572.03;;;9.65;100.00
3968;BME280;9221;42.646;23.380;2023-04-26T00:35:18;93495.25;;;9.05;100.00
3968;BME280;9221;42.646;23.380;2023-04-26T00:37:43;93533.34;;;9.18;100.00
3968;BME280;9221;42.646;23.380;2023-04-26T00:40:09;93529.09;;;9.08;100.00
3968;BME280;9221;42.646;23.380;2023-04-26T00:42:35;93573.25;;;9.46;100.00
3968;BME280;9221;42.646;23.380;2023-04-26T00:45:02;93563.47;;;9.63;100.00
3968;BME280;9221;42.646;23.380;2023-04-26T00:47:28;93570.94;;;9.91;100.00
3968;BME280;9221;42.646;23.380;2023-04-26T00:49:55;93559.38;;;10.00;100.00
3968;BME280;9221;42.646;23.380;2023-04-26T00:52:21;93557.69;;;10.07;100.00
3968;BME280;9221;42.646;23.380;2023-04-26T00:54:48;93579.19;;;10.19;100.00
3968;BME280;9221;42.646;23.380;2023-04-26T00:57:14;93485.63;;;9.69;99.44
3968;BME280;9221;42.646;23.380;2023-04-26T00:59:39;93573.13;;;10.19;99.20
3968;BME280;9221;42.646;23.380;2023-04-26T01:02:05;93510.75;;;9.79;99.06
3968;BME280;9221;42.646;23.380;2023-04-26T01:04:31;93597.47;;;10.21;98.82
3968;BME280;9221;42.646;23.380;2023-04-26T01:06:59;93568.56;;;10.04;98.97
3968;BME280;9221;42.646;23.380;2023-04-26T01:09:24;93589.22;;;9.92;99.21
3968;BME280;9221;42.646;23.380;2023-04-26T01:11:51;93574.84;;;9.95;99.43
3968;BME280;9221;42.646;23.380;2023-04-26T01:14:17;93499.75;;;9.36;98.72
3968;BME280;9221;42.646;23.380;2023-04-26T01:16:42;93562.97;;;9.59;99.48
3968;BME280;9221;42.646;23.380;2023-04-26T01:19:11;93513.75;;;9.28;99.73
3968;BME280;9221;42.646;23.380;2023-04-26T01:21:38;93612.09;;;9.83;99.96
3968;BME280;9221;42.646;23.380;2023-04-26T01:24:04;93538.13;;;9.62;99.95
3968;BME280;9221;42.646;23.380;2023-04-26T01:26:30;93519.06;;;9.60;99.61
3968;BME280;9221;42.646;23.380;2023-04-26T01:28:57;93515.22;;;9.39;99.82
3968;BME280;9221;42.646;23.380;2023-04-26T01:31:22;93466.75;;;9.25;99.87
3968;BME280;9221;42.646;23.380;2023-04-26T01:33:47;93523.88;;;9.48;99.52
3968;BME280;9221;42.646;23.380;2023-04-26T01:36:13;93538.72;;;9.80;99.63
3968;BME280;9221;42.646;23.380;2023-04-26T01:38:38;93548.88;;;9.92;98.63
3968;BME280;9221;42.646;23.380;2023-04-26T01:41:04;93542.41;;;9.63;98.12
3968;BME280;9221;42.646;23.380;2023-04-26T01:43:29;93561.69;;;9.55;97.04
3968;BME280;9221;42.646;23.380;2023-04-26T01:45:55;93603.84;;;9.39;97.52
3968;BME280;9221;42.646;23.380;2023-04-26T01:48:20;93555.06;;;9.03;97.95
3968;BME280;9221;42.646;23.380;2023-04-26T01:50:46;93550.63;;;9.20;98.54
3968;BME280;9221;42.646;23.380;2023-04-26T01:53:11;93572.06;;;9.48;98.93
3968;BME280;9221;42.646;23.380;2023-04-26T01:55:37;93591.75;;;9.77;98.95
3968;BME280;9221;42.646;23.380;2023-04-26T01:58:02;93496.22;;;9.04;98.44
3968;BME280;9221;42.646;23.380;2023-04-26T02:00:28;93546.44;;;9.42;98.36
3968;BME280;9221;42.646;23.380;2023-04-26T02:02:54;93561.94;;;9.29;98.47
3968;BME280;9221;42.646;23.380;2023-04-26T02:05:20;93565.22;;;9.31;98.74
3968;BME280;9221;42.646;23.380;2023-04-26T02:07:46;93582.16;;;9.28;98.73
3968;BME280;9221;42.646;23.380;2023-04-26T02:10:11;93548.75;;;9.37;98.69
3968;BME280;9221;42.646;23.380;2023-04-26T02:12:37;93632.16;;;9.28;98.89
3968;BME280;9221;42.646;23.380;2023-04-26T02:15:03;93592.53;;;9.22;98.56
3968;BME280;9221;42.646;23.380;2023-04-26T02:17:29;93508.44;;;8.89;99.40
3968;BME280;9221;42.646;23.380;2023-04-26T02:19:54;93576.59;;;9.07;98.66
3968;BME280;9221;42.646;23.380;2023-04-26T02:22:22;93550.78;;;9.10;99.13
3968;BME280;9221;42.646;23.380;2023-04-26T02:24:49;93580.19;;;9.14;98.79
3968;BME280;9221;42.646;23.380;2023-04-26T02:27:16;93548.28;;;9.17;98.89
3968;BME280;9221;42.646;23.380;2023-04-26T02:29:41;93556.72;;;9.04;98.96
3968;BME280;9221;42.646;23.380;2023-04-26T02:32:07;93560.50;;;9.02;99.46
3968;BME280;9221;42.646;23.380;2023-04-26T02:34:32;93533.06;;;8.38;100.00
3968;BME280;9221;42.646;23.380;2023-04-26T02:36:58;93567.53;;;8.43;100.00
3968;BME280;9221;42.646;23.380;2023-04-26T02:39:23;93487.69;;;8.03;100.00
3968;BME280;9221;42.646;23.380;2023-04-26T02:41:49;93591.22;;;8.52;100.00
3968;BME280;9221;42.646;23.380;2023-04-26T02:44:15;93442.09;;;8.04;100.00
3968;BME280;9221;42.646;23.380;2023-04-26T02:46:40;93477.53;;;8.41;100.00
3968;BME280;9221;42.646;23.380;2023-04-26T02:49:06;93489.38;;;8.70;100.00
3968;BME280;9221;42.646;23.380;2023-04-26T02:51:31;93547.13;;;9.20;100.00
3968;BME280;9221;42.646;23.380;2023-04-26T02:53:57;93561.44;;;9.17;99.56
3968;BME280;9221;42.646;23.380;2023-04-26T02:56:23;93480.19;;;8.58;96.82
3968;BME280;9221;42.646;23.380;2023-04-26T02:58:48;93550.81;;;8.53;95.96
3968;BME280;9221;42.646;23.380;2023-04-26T03:01:14;93527.78;;;8.38;96.93
3968;BME280;9221;42.646;23.380;2023-04-26T03:03:39;93519.41;;;8.26;96.71
3968;BME280;9221;42.646;23.380;2023-04-26T03:06:05;93532.34;;;8.11;97.26
3968;BME280;9221;42.646;23.380;2023-04-26T03:08:31;93527.06;;;7.95;97.95
3968;BME280;9221;42.646;23.380;2023-04-26T03:10:59;93573.44;;;8.37;98.18
3968;BME280;9221;42.646;23.380;2023-04-26T03:13:24;93516.63;;;8.28;98.05
3968;BME280;9221;42.646;23.380;2023-04-26T03:15:50;93533.38;;;8.35;98.44
3968;BME280;9221;42.646;23.380;2023-04-26T03:18:16;93522.53;;;8.30;97.90
3968;BME280;9221;42.646;23.380;2023-04-26T03:20:42;93469.16;;;8.21;98.39
3968;BME280;9221;42.646;23.380;2023-04-26T03:23:07;93532.75;;;8.74;97.58
3968;BME280;9221;42.646;23.380;2023-04-26T03:25:33;93529.63;;;8.95;96.88
3968;BME280;9221;42.646;23.380;2023-04-26T03:27:58;93525.47;;;9.09;97.19
3968;BME280;9221;42.646;23.380;2023-04-26T03:30:24;93526.13;;;9.03;96.88
3968;BME280;9221;42.646;23.380;2023-04-26T03:32:50;93535.03;;;8.69;97.04
3968;BME280;9221;42.646;23.380;2023-04-26T03:35:16;93523.53;;;8.70;98.25
3968;BME280;9221;42.646;23.380;2023-04-26T03:37:41;93535.16;;;9.09;97.68
3968;BME280;9221;42.646;23.380;2023-04-26T03:40:08;93476.91;;;8.72;96.87
3968;BME280;9221;42.646;23.380;2023-04-26T03:42:34;93488.69;;;8.93;96.65
3968;BME280;9221;42.646;23.380;2023-04-26T03:45:00;93533.97;;;9.28;95.90
3968;BME280;9221;42.646;23.380;2023-04-26T03:47:28;93526.44;;;9.17;96.51
3968;BME280;9221;42.646;23.380;2023-04-26T03:49:53;93535.63;;;9.21;96.00
3968;BME280;9221;42.646;23.380;2023-04-26T03:52:19;93497.59;;;8.59;96.27
3968;BME280;9221;42.646;23.380;2023-04-26T03:54:44;93538.66;;;8.85;97.34
3968;BME280;9221;42.646;23.380;2023-04-26T03:57:10;93488.75;;;8.68;97.09
3968;BME280;9221;42.646;23.380;2023-04-26T03:59:35;93496.63;;;8.68;97.98
3968;BME280;9221;42.646;23.380;2023-04-26T04:02:01;93575.94;;;9.05;97.61
3968;BME280;9221;42.646;23.380;2023-04-26T04:04:26;93534.16;;;9.18;97.31
3968;BME280;9221;42.646;23.380;2023-04-26T04:06:51;93516.88;;;9.24;96.55
3968;BME280;9221;42.646;23.380;2023-04-26T04:09:17;93553.63;;;9.65;96.05
3968;BME280;9221;42.646;23.380;2023-04-26T04:11:42;93515.34;;;9.46;94.83
3968;BME280;9221;42.646;23.380;2023-04-26T04:14:08;93550.56;;;9.85;94.69
3968;BME280;9221;42.646;23.380;2023-04-26T04:16:33;93517.66;;;9.80;93.87
3968;BME280;9221;42.646;23.380;2023-04-26T04:18:58;93494.78;;;9.81;93.49
3968;BME280;9221;42.646;23.380;2023-04-26T04:21:24;93551.72;;;9.82;94.26
3968;BME280;9221;42.646;23.380;2023-04-26T04:23:49;93554.09;;;9.60;95.27
3968;BME280;9221;42.646;23.380;2023-04-26T04:26:15;93579.13;;;9.96;95.40
3968;BME280;9221;42.646;23.380;2023-04-26T04:28:41;93532.44;;;9.90;95.26
3968;BME280;9221;42.646;23.380;2023-04-26T04:31:07;93459.63;;;9.74;95.11
3968;BME280;9221;42.646;23.380;2023-04-26T04:33:34;93592.28;;;10.67;94.11
3968;BME280;9221;42.646;23.380;2023-04-26T04:35:59;93607.41;;;10.73;93.33
3968;BME280;9221;42.646;23.380;2023-04-26T04:38:25;93521.28;;;10.42;92.44
3968;BME280;9221;42.646;23.380;2023-04-26T04:40:50;93527.72;;;10.63;91.90
3968;BME280;9221;42.646;23.380;2023-04-26T04:43:16;93530.47;;;10.70;90.84
3968;BME280;9221;42.646;23.380;2023-04-26T04:45:42;93588.25;;;11.17;90.45
3968;BME280;9221;42.646;23.380;2023-04-26T04:48:07;93532.78;;;10.88;89.88
3968;BME280;9221;42.646;23.380;2023-04-26T04:50:35;93572.19;;;11.04;89.51
3968;BME280;9221;42.646;23.380;2023-04-26T04:53:02;93583.69;;;11.11;89.47
3968;BME280;9221;42.646;23.380;2023-04-26T04:55:27;93606.16;;;11.07;89.29
3968;BME280;9221;42.646;23.380;2023-04-26T04:57:53;93563.50;;;11.18;89.50
3968;BME280;9221;42.646;23.380;2023-04-26T05:00:18;93602.28;;;11.33;89.05
3968;BME280;9221;42.646;23.380;2023-04-26T05:02:44;93525.66;;;11.11;88.56
3968;BME280;9221;42.646;23.380;2023-04-26T05:05:10;93600.34;;;11.65;88.08
3968;BME280;9221;42.646;23.380;2023-04-26T05:07:35;93637.84;;;11.60;87.45
3968;BME280;9221;42.646;23.380;2023-04-26T05:10:02;93522.94;;;11.20;86.64
3968;BME280;9221;42.646;23.380;2023-04-26T05:12:27;93546.59;;;11.28;86.62
3968;BME280;9221;42.646;23.380;2023-04-26T05:14:53;93582.19;;;11.77;86.49
3968;BME280;9221;42.646;23.380;2023-04-26T05:17:18;93455.59;;;10.94;86.18
3968;BME280;9221;42.646;23.380;2023-04-26T05:19:44;93603.44;;;11.83;85.77
3968;BME280;9221;42.646;23.380;2023-04-26T05:22:10;93463.75;;;11.14;85.91
3968;BME280;9221;42.646;23.380;2023-04-26T05:24:35;93585.34;;;11.95;85.71
3968;BME280;9221;42.646;23.380;2023-04-26T05:27:01;93611.84;;;12.02;85.73
3968;BME280;9221;42.646;23.380;2023-04-26T05:29:31;93596.59;;;12.04;85.64
3968;BME280;9221;42.646;23.380;2023-04-26T05:31:57;93550.97;;;11.80;85.24
3968;BME280;9221;42.646;23.380;2023-04-26T05:34:22;93617.31;;;12.15;85.03
3968;BME280;9221;42.646;23.380;2023-04-26T05:36:48;93551.78;;;11.96;84.76
3968;BME280;9221;42.646;23.380;2023-04-26T05:39:14;93645.97;;;12.48;84.42
3968;BME280;9221;42.646;23.380;2023-04-26T05:41:40;93610.09;;;12.61;83.99
3968;BME280;9221;42.646;23.380;2023-04-26T05:44:05;93550.25;;;12.38;83.26
3968;BME280;9221;42.646;23.380;2023-04-26T05:46:31;93549.84;;;12.56;83.04
3968;BME280;9221;42.646;23.380;2023-04-26T05:48:56;93595.78;;;12.92;82.50
3968;BME280;9221;42.646;23.380;2023-04-26T05:51:21;93562.63;;;12.74;81.75
3968;BME280;9221;42.646;23.380;2023-04-26T05:53:47;93640.50;;;13.08;81.18
3968;BME280;9221;42.646;23.380;2023-04-26T05:56:12;93612.25;;;13.15;80.19
3968;BME280;9221;42.646;23.380;2023-04-26T05:58:37;93589.78;;;13.04;79.98
3968;BME280;9221;42.646;23.380;2023-04-26T06:01:03;93616.94;;;12.92;80.24
3968;BME280;9221;42.646;23.380;2023-04-26T06:03:28;93626.38;;;13.01;80.46
3968;BME280;9221;42.646;23.380;2023-04-26T06:05:54;93571.38;;;12.96;80.06
3968;BME280;9221;42.646;23.380;2023-04-26T06:08:19;93564.06;;;12.98;79.18
3968;BME280;9221;42.646;23.380;2023-04-26T06:10:45;93613.63;;;13.33;79.40
3968;BME280;9221;42.646;23.380;2023-04-26T06:13:11;93610.63;;;13.14;79.48
3968;BME280;9221;42.646;23.380;2023-04-26T06:15:36;93597.00;;;13.39;79.49
3968;BME280;9221;42.646;23.380;2023-04-26T06:18:03;93608.34;;;13.54;77.75
3968;BME280;9221;42.646;23.380;2023-04-26T06:20:29;93585.22;;;13.20;77.48
3968;BME280;9221;42.646;23.380;2023-04-26T06:22:54;93596.34;;;13.59;76.31
3968;BME280;9221;42.646;23.380;2023-04-26T06:25:20;93600.47;;;13.68;75.73
3968;BME280;9221;42.646;23.380;2023-04-26T06:27:45;93606.63;;;13.75;75.39
3968;BME280;9221;42.646;23.380;2023-04-26T06:30:11;93589.56;;;13.84;75.96
3968;BME280;9221;42.646;23.380;2023-04-26T06:32:39;93538.13;;;13.72;75.46
3968;BME280;9221;42.646;23.380;2023-04-26T06:35:04;93589.75;;;14.18;74.08
3968;BME280;9221;42.646;23.380;2023-04-26T06:37:31;93536.00;;;13.96;74.25
3968;BME280;9221;42.646;23.380;2023-04-26T06:39:56;93599.97;;;14.28;73.49
3968;BME280;9221;42.646;23.380;2023-04-26T06:42:22;93540.25;;;13.83;74.83
3968;BME280;9221;42.646;23.380;2023-04-26T06:44:47;93542.56;;;13.65;76.07
3968;BME280;9221;42.646;23.380;2023-04-26T06:47:12;93566.25;;;13.73;76.10
3968;BME280;9221;42.646;23.380;2023-04-26T06:49:38;93544.53;;;13.49;74.47
3968;BME280;9221;42.646;23.380;2023-04-26T06:52:04;93543.16;;;13.32;73.85
3968;BME280;9221;42.646;23.380;2023-04-26T06:54:31;93626.03;;;13.54;71.48
3968;BME280;9221;42.646;23.380;2023-04-26T06:56:57;93618.31;;;13.09;68.33
3968;BME280;9221;42.646;23.380;2023-04-26T06:59:22;93610.25;;;12.96;68.56
3968;BME280;9221;42.646;23.380;2023-04-26T07:01:48;93591.97;;;12.79;69.65
3968;BME280;9221;42.646;23.380;2023-04-26T07:04:13;93611.19;;;12.88;69.38
3968;BME280;9221;42.646;23.380;2023-04-26T07:06:41;93640.72;;;12.70;66.66
3968;BME280;9221;42.646;23.380;2023-04-26T07:09:06;93615.22;;;12.84;67.66
3968;BME280;9221;42.646;23.380;2023-04-26T07:11:32;93560.19;;;12.73;67.73
3968;BME280;9221;42.646;23.380;2023-04-26T07:13:57;93612.41;;;13.07;67.53
3968;BME280;9221;42.646;23.380;2023-04-26T07:16:22;93575.28;;;13.00;68.00
3968;BME280;9221;42.646;23.380;2023-04-26T07:18:48;93623.09;;;13.42;67.48
3968;BME280;9221;42.646;23.380;2023-04-26T07:21:14;93612.13;;;13.45;66.05
3968;BME280;9221;42.646;23.380;2023-04-26T07:23:40;93633.78;;;13.56;66.35
3968;BME280;9221;42.646;23.380;2023-04-26T07:26:05;93642.78;;;13.61;66.06
3968;BME280;9221;42.646;23.380;2023-04-26T07:28:31;93610.28;;;13.74;65.16
3968;BME280;9221;42.646;23.380;2023-04-26T07:30:59;93594.41;;;13.74;65.13
3968;BME280;9221;42.646;23.380;2023-04-26T07:33:25;93613.28;;;13.99;66.24
3968;BME280;9221;42.646;23.380;2023-04-26T07:35:58;93628.63;;;14.04;65.37
3968;BME280;9221;42.646;23.380;2023-04-26T07:38:25;93573.59;;;13.78;64.44
3968;BME280;9221;42.646;23.380;2023-04-26T07:40:51;93626.25;;;14.22;64.95
3968;BME280;9221;42.646;23.380;2023-04-26T07:43:18;93553.22;;;13.71;64.90
3968;BME280;9221;42.646;23.380;2023-04-26T07:45:43;93613.91;;;14.43;63.14
3968;BME280;9221;42.646;23.380;2023-04-26T07:48:09;93628.22;;;14.55;61.97
3968;BME280;9221;42.646;23.380;2023-04-26T07:50:34;93626.47;;;14.21;59.45
3968;BME280;9221;42.646;23.380;2023-04-26T07:53:00;93625.75;;;14.47;60.17
3968;BME280;9221;42.646;23.380;2023-04-26T07:55:26;93645.22;;;14.61;59.81
3968;BME280;9221;42.646;23.380;2023-04-26T07:57:51;93519.03;;;13.83;60.36
3968;BME280;9221;42.646;23.380;2023-04-26T08:00:17;93636.03;;;14.64;60.07
3968;BME280;9221;42.646;23.380;2023-04-26T08:02:43;93631.06;;;14.47;59.01
3968;BME280;9221;42.646;23.380;2023-04-26T08:05:11;93577.38;;;13.97;59.25
3968;BME280;9221;42.646;23.380;2023-04-26T08:07:37;93645.38;;;14.46;58.10
3968;BME280;9221;42.646;23.380;2023-04-26T08:10:02;93573.06;;;14.31;57.67
3968;BME280;9221;42.646;23.380;2023-04-26T08:12:28;93639.38;;;14.79;57.72
3968;BME280;9221;42.646;23.380;2023-04-26T08:14:53;93647.16;;;14.87;58.18
3968;BME280;9221;42.646;23.380;2023-04-26T08:17:18;93675.78;;;14.99;57.27
3968;BME280;9221;42.646;23.380;2023-04-26T08:19:44;93637.00;;;15.11;57.25
3968;BME280;9221;42.646;23.380;2023-04-26T08:22:09;93672.56;;;15.17;56.93
3968;BME280;9221;42.646;23.380;2023-04-26T08:24:35;93639.44;;;15.13;57.05
3968;BME280;9221;42.646;23.380;2023-04-26T08:27:00;93627.19;;;14.98;57.46
3968;BME280;9221;42.646;23.380;2023-04-26T08:29:26;93665.97;;;14.93;57.58
3968;BME280;9221;42.646;23.380;2023-04-26T08:31:52;93645.47;;;14.73;57.56
3968;BME280;9221;42.646;23.380;2023-04-26T08:34:17;93648.94;;;14.67;57.50
3968;BME280;9221;42.646;23.380;2023-04-26T08:36:43;93655.66;;;14.63;58.43
3968;BME280;9221;42.646;23.380;2023-04-26T08:39:10;93642.75;;;14.53;58.92
3968;BME280;9221;42.646;23.380;2023-04-26T08:41:44;93636.91;;;14.71;59.04
3968;BME280;9221;42.646;23.380;2023-04-26T08:44:13;93640.06;;;14.46;58.48
3968;BME280;9221;42.646;23.380;2023-04-26T08:46:47;93653.03;;;14.76;58.09
3968;BME280;9221;42.646;23.380;2023-04-26T08:51:44;93655.31;;;14.79;57.05
3968;BME280;9221;42.646;23.380;2023-04-26T08:54:10;93679.75;;;14.68;57.54
3968;BME280;9221;42.646;23.380;2023-04-26T08:56:37;93652.03;;;14.77;58.25
3968;BME280;9221;42.646;23.380;2023-04-26T08:59:03;93589.47;;;14.54;58.74
3968;BME280;9221;42.646;23.380;2023-04-26T09:01:30;93570.56;;;14.71;57.60
3968;BME280;9221;42.646;23.380;2023-04-26T09:03:57;93641.31;;;15.26;57.17
3968;BME280;9221;42.646;23.380;2023-04-26T09:06:24;93648.06;;;15.21;56.62
3968;BME280;9221;42.646;23.380;2023-04-26T09:08:54;93642.31;;;15.11;57.13
3968;BME280;9221;42.646;23.380;2023-04-26T09:11:20;93669.06;;;15.03;56.89
3968;BME280;9221;42.646;23.380;2023-04-26T09:13:46;93659.88;;;15.12;56.06
3968;BME280;9221;42.646;23.380;2023-04-26T09:16:12;93588.31;;;14.77;55.70
3968;BME280;9221;42.646;23.380;2023-04-26T09:18:46;93665.22;;;15.46;55.37
3968;BME280;9221;42.646;23.380;2023-04-26T09:21:13;93620.59;;;14.81;54.87
3968;BME280;9221;42.646;23.380;2023-04-26T09:24:08;93662.38;;;15.27;54.35
3968;BME280;9221;42.646;23.380;2023-04-26T09:26:33;93674.19;;;15.11;54.59
3968;BME280;9221;42.646;23.380;2023-04-26T09:29:16;93651.09;;;15.18;54.58
3968;BME280;9221;42.646;23.380;2023-04-26T09:31:46;93759.78;;;15.13;54.49
3968;BME280;9221;42.646;23.380;2023-04-26T09:34:13;93652.13;;;15.11;54.53
3968;BME280;9221;42.646;23.380;2023-04-26T09:36:55;93606.72;;;14.85;54.33
3968;BME280;9221;42.646;23.380;2023-04-26T09:39:35;93667.91;;;15.32;54.11
3968;BME280;9221;42.646;23.380;2023-04-26T09:42:08;93664.00;;;15.35;53.80
3968;BME280;9221;42.646;23.380;2023-04-26T09:44:36;93646.41;;;15.14;53.91
3968;BME280;9221;42.646;23.380;2023-04-26T09:47:05;93670.13;;;15.29;54.44
3968;BME280;9221;42.646;23.380;2023-04-26T09:49:45;93686.09;;;15.42;54.06
3968;BME280;9221;42.646;23.380;2023-04-26T09:52:11;93711.47;;;15.51;53.61
3968;BME280;9221;42.646;23.380;2023-04-26T09:54:54;93592.88;;;15.23;53.38
3968;BME280;9221;42.646;23.380;2023-04-26T09:57:21;93675.50;;;15.55;53.38
3968;BME280;9221;42.646;23.380;2023-04-26T09:59:49;93591.66;;;15.33;54.29
3968;BME280;9221;42.646;23.380;2023-04-26T10:02:23;93597.59;;;15.48;53.50
3968;BME280;9221;42.646;23.380;2023-04-26T10:04:50;93648.47;;;16.12;52.55
3968;BME280;9221;42.646;23.380;2023-04-26T10:07:19;93653.38;;;16.15;52.44
3968;BME280;9221;42.646;23.380;2023-04-26T10:09:45;93661.38;;;16.02;51.89
3968;BME280;9221;42.646;23.380;2023-04-26T10:12:13;93683.28;;;15.97;51.63
3968;BME280;9221;42.646;23.380;2023-04-26T10:14:39;93646.00;;;16.17;51.50
3968;BME280;9221;42.646;23.380;2023-04-26T10:17:05;93641.22;;;16.46;50.82
3968;BME280;9221;42.646;23.380;2023-04-26T10:19:35;93699.00;;;16.32;50.52
3968;BME280;9221;42.646;23.380;2023-04-26T10:22:08;93640.66;;;16.31;50.77
3968;BME280;9221;42.646;23.380;2023-04-26T10:24:35;93631.47;;;16.27;50.67
3968;BME280;9221;42.646;23.380;2023-04-26T10:27:01;93577.72;;;15.98;50.11
3968;BME280;9221;42.646;23.380;2023-04-26T10:32:22;93661.66;;;17.04;47.99
3968;BME280;9221;42.646;23.380;2023-04-26T10:35:10;93631.59;;;16.97;47.20
3968;BME280;9221;42.646;23.380;2023-04-26T10:45:46;93638.25;;;16.09;49.27
3968;BME280;9221;42.646;23.380;2023-04-26T10:58:47;93626.78;;;16.15;47.84
3968;BME280;9221;42.646;23.380;2023-04-26T11:03:41;93620.22;;;16.11;46.91
3968;BME280;9221;42.646;23.380;2023-04-26T11:06:08;93625.75;;;16.16;47.19
3968;BME280;9221;42.646;23.380;2023-04-26T11:08:34;93630.84;;;16.24;46.80
3968;BME280;9221;42.646;23.380;2023-04-26T11:13:29;93623.53;;;16.00;46.67
3968;BME280;9221;42.646;23.380;2023-04-26T11:16:02;93565.09;;;15.60;47.64
3968;BME280;9221;42.646;23.380;2023-04-26T11:18:32;93627.19;;;16.19;47.20
3968;BME280;9221;42.646;23.380;2023-04-26T11:20:58;93642.47;;;16.37;47.37
3968;BME280;9221;42.646;23.380;2023-04-26T11:23:28;93569.91;;;16.10;46.83
3968;BME280;9221;42.646;23.380;2023-04-26T11:25:58;93627.88;;;16.60;46.09
3968;BME280;9221;42.646;23.380;2023-04-26T11:28:24;93619.25;;;16.57;45.70
3968;BME280;9221;42.646;23.380;2023-04-26T11:30:50;93562.56;;;16.12;45.30
3968;BME280;9221;42.646;23.380;2023-04-26T11:33:19;93633.03;;;16.41;45.87
3968;BME280;9221;42.646;23.380;2023-04-26T11:35:56;93629.91;;;16.57;45.98
3968;BME280;9221;42.646;23.380;2023-04-26T11:38:23;93657.66;;;16.95;45.34
3968;BME280;9221;42.646;23.380;2023-04-26T11:41:00;93634.19;;;17.11;44.38
3968;BME280;9221;42.646;23.380;2023-04-26T11:43:33;93635.34;;;16.89;44.35
3968;BME280;9221;42.646;23.380;2023-04-26T11:46:00;93636.19;;;17.15;43.70
3968;BME280;9221;42.646;23.380;2023-04-26T11:48:26;93630.09;;;17.08;43.88
3968;BME280;9221;42.646;23.380;2023-04-26T11:50:52;93579.47;;;16.76;43.90
3968;BME280;9221;42.646;23.380;2023-04-26T11:53:18;93617.28;;;17.23;43.93
3968;BME280;9221;42.646;23.380;2023-04-26T11:55:44;93620.00;;;17.49;42.91
3968;BME280;9221;42.646;23.380;2023-04-26T11:58:12;93564.00;;;17.23;43.24
3968;BME280;9221;42.646;23.380;2023-04-26T12:00:57;93610.84;;;17.63;42.09
3968;BME280;9221;42.646;23.380;2023-04-26T12:03:28;93580.00;;;17.23;41.91
3968;BME280;9221;42.646;23.380;2023-04-26T12:05:54;93543.88;;;17.02;42.19
3968;BME280;9221;42.646;23.380;2023-04-26T12:08:23;93630.34;;;17.32;42.30
3968;BME280;9221;42.646;23.380;2023-04-26T12:10:49;93600.78;;;17.40;41.70
3968;BME280;9221;42.646;23.380;2023-04-26T12:13:14;93592.06;;;17.76;41.39
3968;BME280;9221;42.646;23.380;2023-04-26T12:15:40;93604.16;;;17.79;41.13
3968;BME280;9221;42.646;23.380;2023-04-26T12:18:07;93560.66;;;17.35;41.42
3968;BME280;9221;42.646;23.380;2023-04-26T12:20:35;93602.69;;;17.33;41.40
3968;BME280;9221;42.646;23.380;2023-04-26T12:23:06;93597.16;;;17.59;41.69
3968;BME280;9221;42.646;23.380;2023-04-26T12:25:33;93596.97;;;17.54;42.00
3968;BME280;9221;42.646;23.380;2023-04-26T12:27:59;93620.91;;;17.36;42.43
3968;BME280;9221;42.646;23.380;2023-04-26T12:30:26;93595.13;;;17.30;42.84
3968;BME280;9221;42.646;23.380;2023-04-26T12:32:53;93608.34;;;17.43;42.53
3968;BME280;9221;42.646;23.380;2023-04-26T12:35:18;93559.47;;;17.31;42.29
3968;BME280;9221;42.646;23.380;2023-04-26T12:37:43;93609.72;;;17.52;41.91
3968;BME280;9221;42.646;23.380;2023-04-26T12:40:10;93545.31;;;17.55;41.23
3968;BME280;9221;42.646;23.380;2023-04-26T12:42:36;93553.88;;;17.57;41.25
3968;BME280;9221;42.646;23.380;2023-04-26T12:45:01;93580.66;;;17.44;41.20
3968;BME280;9221;42.646;23.380;2023-04-26T12:47:26;93480.72;;;16.78;41.68
3968;BME280;9221;42.646;23.380;2023-04-26T12:49:52;93589.94;;;17.09;42.15
3968;BME280;9221;42.646;23.380;2023-04-26T12:52:17;93630.59;;;16.91;42.64
3968;BME280;9221;42.646;23.380;2023-04-26T12:54:43;93583.88;;;16.96;42.26
3968;BME280;9221;42.646;23.380;2023-04-26T12:57:09;93588.41;;;16.88;42.71
3968;BME280;9221;42.646;23.380;2023-04-26T12:59:35;93537.22;;;16.48;43.04
3968;BME280;9221;42.646;23.380;2023-04-26T13:02:00;93581.16;;;16.64;43.93
3968;BME280;9221;42.646;23.380;2023-04-26T13:04:27;93634.06;;;16.40;43.96
3968;BME280;9221;42.646;23.380;2023-04-26T13:06:53;93627.53;;;16.29;44.38
3968;BME280;9221;42.646;23.380;2023-04-26T13:09:20;93543.38;;;15.89;43.80
3968;BME280;9221;42.646;23.380;2023-04-26T13:11:45;93605.16;;;15.92;43.80
3968;BME280;9221;42.646;23.380;2023-04-26T13:14:11;93617.84;;;15.83;44.26
3968;BME280;9221;42.646;23.380;2023-04-26T13:16:36;93611.25;;;15.99;45.67
3968;BME280;9221;42.646;23.380;2023-04-26T13:19:06;93634.59;;;15.63;47.32
3968;BME280;9221;42.646;23.380;2023-04-26T13:21:31;93567.34;;;15.22;47.79
3968;BME280;9221;42.646;23.380;2023-04-26T13:23:57;93618.66;;;15.30;48.34
3968;BME280;9221;42.646;23.380;2023-04-26T13:26:22;93638.88;;;15.17;48.99
3968;BME280;9221;42.646;23.380;2023-04-26T13:28:48;93609.78;;;14.82;48.55
3968;BME280;9221;42.646;23.380;2023-04-26T13:31:13;93634.94;;;15.00;48.26
3968;BME280;9221;42.646;23.380;2023-04-26T13:33:41;93567.00;;;14.50;48.50
3968;BME280;9221;42.646;23.380;2023-04-26T13:36:06;93621.44;;;14.95;48.65
3968;BME280;9221;42.646;23.380;2023-04-26T13:38:32;93568.84;;;14.56;48.60